Time;durP1;ratioP1;P1;durP2;ratioP2;P2;SDS_P1;SDS_P2;PMS_P1;PMS_P2;Temp;Humidity;BMP_temperature;BMP_pressure;BME280_temperature;BME280_humidity;BME280_pressure;Samples;Min_cycle;Max_cycle;Signal;HPM_P1;HPM_P2
2022/06/10 00:00:53;;;;;;;13.82;3.83;;;;;;;16.29;69.87;101949.69;5016096;28;20045;-48
2022/06/10 00:03:41;;;;;;;11.18;3.45;;;;;;;16.19;70.50;101959.59;5034330;28;20065;-48
2022/06/10 00:06:29;;;;;;;11.00;3.70;;;;;;;16.11;71.12;101949.16;5033815;28;20049;-46
2022/06/10 00:09:16;;;;;;;11.80;3.35;;;;;;;16.12;71.45;101952.75;5032738;28;20045;-46
2022/06/10 00:12:05;;;;;;;14.43;3.30;;;;;;;16.06;71.30;101960.16;5019038;28;20412;-48
2022/06/10 00:14:52;;;;;;;9.48;3.40;;;;;;;15.98;71.84;101956.06;5026196;28;20049;-50
2022/06/10 00:17:40;;;;;;;10.15;3.10;;;;;;;15.87;72.35;101953.59;5029699;28;20048;-48
2022/06/10 00:20:30;;;;;;;11.55;3.22;;;;;;;15.79;72.82;101963.22;5019017;28;20038;-48
2022/06/10 00:23:18;;;;;;;10.30;3.42;;;;;;;15.73;73.54;101965.16;5015270;28;20088;-48
2022/06/10 00:26:06;;;;;;;11.63;3.70;;;;;;;15.75;73.63;101964.84;5029414;28;20096;-46
2022/06/10 00:28:53;;;;;;;12.45;3.70;;;;;;;15.82;73.01;101959.91;5026309;28;20050;-48
2022/06/10 00:31:41;;;;;;;7.75;3.13;;;;;;;15.87;73.07;101959.09;5026443;28;20053;-49
2022/06/10 00:34:29;;;;;;;14.75;3.70;;;;;;;15.89;72.59;101962.38;5031874;28;20073;-46
2022/06/10 00:37:17;;;;;;;8.93;3.25;;;;;;;15.89;72.65;101962.38;5026709;28;20101;-47
2022/06/10 00:40:06;;;;;;;12.77;3.78;;;;;;;15.91;72.88;101951.94;5031618;28;20045;-46
2022/06/10 00:42:56;;;;;;;10.65;3.70;;;;;;;15.91;72.62;101954.69;5033205;28;20526;-46
2022/06/10 00:45:58;;;;;;;10.57;3.40;;;;;;;15.91;72.80;101957.44;5011970;28;20030;-47
2022/06/10 00:48:57;;;;;;;12.95;3.72;;;;;;;15.92;73.13;101951.69;5029362;28;20046;-46
2022/06/10 00:51:48;;;;;;;13.05;3.75;;;;;;;15.86;72.90;101951.94;5020981;28;20519;-46
2022/06/10 00:54:40;;;;;;;10.57;3.53;;;;;;;15.81;73.89;101950.03;5011315;28;20427;-47
2022/06/10 00:57:33;;;;;;;10.18;3.30;;;;;;;15.82;73.83;101940.66;5025495;28;20056;-48
2022/06/10 01:00:22;;;;;;;8.80;3.05;;;;;;;15.83;73.94;101938.78;5017153;28;20053;-48
2022/06/10 01:03:10;;;;;;;14.15;3.83;;;;;;;15.76;73.66;101952.78;5023597;28;20129;-47
2022/06/10 01:05:57;;;;;;;11.68;3.72;;;;;;;15.64;74.25;101955.78;5021360;28;20050;-47
2022/06/10 01:08:46;;;;;;;11.23;3.25;;;;;;;15.62;75.17;101946.16;5030472;28;20041;-48
2022/06/10 01:12:04;;;;;;;9.02;3.30;;;;;;;15.61;74.72;101953.59;5024238;28;20058;-50
2022/06/10 01:15:30;;;;;;;9.63;3.00;;;;;;;15.61;74.78;101944.50;5019240;28;20045;-46
2022/06/10 01:18:26;;;;;;;8.68;3.45;;;;;;;15.54;75.46;101953.03;5019127;28;20060;-48
2022/06/10 01:21:24;;;;;;;8.27;3.40;;;;;;;15.46;75.94;101953.56;5025161;28;20072;-48
2022/06/10 01:24:42;;;;;;;9.68;3.63;;;;;;;15.41;76.40;101950.81;5031056;28;20049;-49
2022/06/10 01:27:56;;;;;;;9.20;3.47;;;;;;;15.40;76.68;101949.97;5015005;28;20048;-48
2022/06/10 01:30:59;;;;;;;7.38;3.35;;;;;;;15.43;76.45;101954.09;5024594;28;20053;-47
2022/06/10 01:34:10;;;;;;;9.80;3.60;;;;;;;15.42;76.77;101946.97;5030501;28;20042;-48
2022/06/10 01:37:22;;;;;;;10.45;3.85;;;;;;;15.42;77.41;101952.47;5021051;28;20053;-50
2022/06/10 01:40:48;;;;;;;10.18;3.75;;;;;;;15.45;77.50;101951.91;5032188;28;20056;-52
2022/06/10 01:44:00;;;;;;;7.32;2.90;;;;;;;15.46;77.34;101948.88;5031183;28;20049;-49
2022/06/10 01:46:54;;;;;;;10.82;3.50;;;;;;;15.50;77.02;101943.69;5013286;28;20045;-49
2022/06/10 01:49:53;;;;;;;12.07;3.72;;;;;;;15.52;76.81;101945.06;5029935;28;20050;-51
2022/06/10 01:52:44;;;;;;;9.95;3.13;;;;;;;15.53;76.65;101948.63;5030238;28;20489;-48
2022/06/10 01:55:39;;;;;;;9.38;3.45;;;;;;;15.57;76.80;101938.75;5014720;28;20432;-47
2022/06/10 01:58:35;;;;;;;9.63;3.08;;;;;;;15.67;76.61;101938.72;5035701;28;20438;-53
2022/06/10 02:01:32;;;;;;;9.75;3.08;;;;;;;15.74;76.49;101942.06;5039131;28;20057;-52
2022/06/10 02:04:33;;;;;;;13.32;3.50;;;;;;;15.80;76.14;101936.56;5030659;28;20041;-54
2022/06/10 02:07:25;;;;;;;9.73;3.30;;;;;;;15.82;75.94;101939.84;5028370;28;20038;-51
2022/06/10 02:10:18;;;;;;;11.77;3.30;;;;;;;15.84;75.91;101945.91;5018268;28;20085;-50
2022/06/10 02:13:19;;;;;;;8.52;2.97;;;;;;;15.86;75.65;101941.78;5015861;28;20539;-48
2022/06/10 02:16:11;;;;;;;11.73;3.05;;;;;;;15.88;75.69;101947.00;5019962;28;20508;-49
2022/06/10 02:19:26;;;;;;;10.98;3.45;;;;;;;15.87;75.48;101957.16;5007485;28;20045;-49
2022/06/10 02:22:37;;;;;;;7.90;2.70;;;;;;;15.85;75.53;101953.03;5009412;28;20132;-49
2022/06/10 02:25:30;;;;;;;10.70;3.10;;;;;;;15.86;75.64;101946.47;5015453;28;20045;-49
2022/06/10 02:28:30;;;;;;;10.50;3.50;;;;;;;15.86;75.96;101946.47;5027855;28;20401;-49
2022/06/10 02:31:32;;;;;;;11.70;3.67;;;;;;;15.85;75.69;101950.28;5020520;28;20050;-49
2022/06/10 02:34:20;;;;;;;8.38;2.90;;;;;;;15.85;76.11;101956.63;5029440;28;20069;-50
2022/06/10 02:37:21;;;;;;;6.00;2.65;;;;;;;15.88;76.40;101964.31;5022565;28;20045;-50
2022/06/10 02:40:35;;;;;;;9.63;2.90;;;;;;;15.89;75.88;101965.13;5030675;28;20049;-49
2022/06/10 02:43:31;;;;;;;9.82;2.90;;;;;;;15.92;76.28;101961.81;5032636;28;20120;-50
2022/06/10 02:46:20;;;;;;;8.63;3.25;;;;;;;15.93;76.05;101964.31;5021574;28;20056;-48
2022/06/10 02:49:15;;;;;;;8.30;3.15;;;;;;;15.92;76.04;101970.91;5031994;28;20049;-50
2022/06/10 02:52:03;;;;;;;11.23;3.20;;;;;;;15.91;76.00;101962.94;5018342;28;20049;-49
2022/06/10 02:54:50;;;;;;;14.07;3.40;;;;;;;15.90;76.36;101958.56;5024281;28;20069;-48
2022/06/10 03:01:11;;;;;;;10.60;3.03;;;;;;;15.87;76.62;101959.09;5020135;28;20053;-47
2022/06/10 03:04:15;;;;;;;10.30;3.13;;;;;;;15.86;76.95;101951.94;5030613;28;20545;-48
2022/06/10 03:07:43;;;;;;;10.13;3.22;;;;;;;15.86;76.82;101957.44;5033443;28;20505;-47
2022/06/10 03:10:50;;;;;;;14.77;3.47;;;;;;;15.84;77.63;101948.66;5030003;28;20045;-48
2022/06/10 03:14:12;;;;;;;10.07;3.50;;;;;;;15.83;77.00;101958.84;5025583;28;20053;-47
2022/06/10 03:17:33;;;;;;;8.88;3.20;;;;;;;15.85;77.08;101966.78;5040675;28;20112;-47
2022/06/10 03:20:27;;;;;;;10.02;3.10;;;;;;;15.83;77.88;101966.25;5021522;28;20072;-44
2022/06/10 03:23:47;;;;;;;10.50;3.35;;;;;;;15.85;77.40;101975.03;5033605;28;20407;-45
2022/06/10 03:26:49;;;;;;;7.50;2.72;;;;;;;15.89;78.08;101978.88;5032268;28;20038;-47
2022/06/10 03:29:50;;;;;;;8.55;2.97;;;;;;;15.98;78.29;101977.22;5033410;28;20488;-45
2022/06/10 03:32:46;;;;;;;9.75;2.75;;;;;;;15.98;78.31;101982.72;5020944;28;20497;-48
2022/06/10 03:35:41;;;;;;;10.57;3.03;;;;;;;15.95;78.70;101977.78;5023606;28;20085;-47
2022/06/10 03:38:31;;;;;;;12.10;3.55;;;;;;;15.95;78.60;101983.28;5033652;28;20041;-48
2022/06/10 03:41:23;;;;;;;10.30;3.30;;;;;;;15.91;78.45;101982.19;5024079;28;20050;-46
2022/06/10 03:44:16;;;;;;;10.18;3.42;;;;;;;15.93;78.96;101990.97;5023949;28;20049;-47
2022/06/10 03:47:05;;;;;;;12.60;2.95;;;;;;;15.92;78.71;101989.31;5033193;28;20049;-47
2022/06/10 03:49:57;;;;;;;8.07;2.75;;;;;;;15.90;79.15;101992.34;5033131;28;20499;-48
2022/06/10 03:52:45;;;;;;;10.60;3.58;;;;;;;15.89;79.29;101996.19;5020637;28;20052;-48
2022/06/10 03:55:33;;;;;;;11.48;3.20;;;;;;;15.91;79.81;101987.69;5026675;28;20038;-48
2022/06/10 03:58:21;;;;;;;6.80;2.67;;;;;;;15.93;79.77;101993.72;5015516;28;20045;-47
2022/06/10 04:01:10;;;;;;;8.70;2.78;;;;;;;15.94;80.12;101998.13;5024850;28;20049;-48
2022/06/10 04:03:59;;;;;;;11.65;3.25;;;;;;;15.94;79.91;101990.69;5031570;28;20499;-48
2022/06/10 04:06:47;;;;;;;6.18;2.47;;;;;;;15.98;79.91;102004.72;5034090;28;20512;-48
2022/06/10 04:09:50;;;;;;;8.38;2.53;;;;;;;15.90;80.63;101997.03;5027480;28;20092;-51
2022/06/10 04:12:38;;;;;;;6.57;2.15;;;;;;;15.93;80.63;102001.97;5028643;28;20058;-51
2022/06/10 04:15:27;;;;;;;11.80;3.40;;;;;;;15.96;80.97;102007.72;5033658;28;20411;-46
2022/06/10 04:18:14;;;;;;;10.45;3.08;;;;;;;15.93;80.55;102005.53;5025269;28;20052;-46
2022/06/10 04:21:02;;;;;;;10.20;2.67;;;;;;;15.92;81.33;102011.31;5016796;28;20053;-49
2022/06/10 04:23:50;;;;;;;11.32;2.67;;;;;;;15.99;81.25;102009.09;5031347;28;20128;-48
2022/06/10 04:26:38;;;;;;;13.27;3.15;;;;;;;15.95;81.15;102017.09;5019851;28;20045;-47
2022/06/10 04:29:25;;;;;;;10.32;2.88;;;;;;;15.97;81.14;102017.66;5020720;28;20048;-49
2022/06/10 04:32:14;;;;;;;12.82;3.58;;;;;;;16.00;81.25;102031.94;5028380;28;20041;-48
2022/06/10 04:35:02;;;;;;;11.20;3.40;;;;;;;16.03;81.52;102029.44;5031677;28;20034;-47
2022/06/10 04:37:50;;;;;;;10.90;3.08;;;;;;;16.01;82.26;102019.84;5031626;28;20071;-45
2022/06/10 04:40:38;;;;;;;8.50;3.03;;;;;;;16.00;82.54;102019.00;5020589;28;20045;-48
2022/06/10 04:43:27;;;;;;;11.52;3.40;;;;;;;15.99;83.15;102022.84;5034000;28;20068;-48
2022/06/10 04:46:36;;;;;;;8.60;3.33;;;;;;;16.00;82.83;102024.50;5033225;28;20057;-48
2022/06/10 04:49:23;;;;;;;13.55;3.78;;;;;;;15.99;84.01;102014.59;5016432;28;20489;-48
2022/06/10 04:52:11;;;;;;;16.67;4.60;;;;;;;15.97;84.26;102020.41;5027906;28;20037;-47
2022/06/10 04:54:59;;;;;;;18.90;4.32;;;;;;;15.96;85.08;102021.47;5026617;28;20440;-48
2022/06/10 04:57:47;;;;;;;18.08;4.35;;;;;;;15.98;85.72;102013.78;5031529;28;20045;-50
2022/06/10 05:00:40;;;;;;;14.10;3.90;;;;;;;15.98;85.17;102019.28;5029880;28;20046;-48
2022/06/10 05:03:28;;;;;;;15.55;4.65;;;;;;;16.01;84.93;102017.91;4321762;28;10000662;-47
2022/06/10 05:06:16;;;;;;;17.02;4.70;;;;;;;15.99;85.29;102020.09;5017278;28;20060;-48
2022/06/10 05:09:03;;;;;;;15.15;4.43;;;;;;;16.02;85.11;102013.22;5017678;28;20496;-50
2022/06/10 05:11:51;;;;;;;13.95;4.35;;;;;;;16.03;85.15;102012.16;5015795;28;20092;-47
2022/06/10 05:14:39;;;;;;;16.02;4.68;;;;;;;16.03;85.30;102012.97;5018505;28;20047;-47
2022/06/10 05:17:26;;;;;;;15.07;4.20;;;;;;;16.05;84.61;102024.50;5027225;28;20053;-48
2022/06/10 05:20:23;;;;;;;14.18;4.00;;;;;;;16.07;84.51;102005.00;5028501;28;20114;-49
2022/06/10 05:23:14;;;;;;;20.52;4.10;;;;;;;16.06;85.33;102006.91;5025135;28;20092;-49
2022/06/10 05:26:02;;;;;;;14.43;4.35;;;;;;;16.04;85.39;102006.34;5029801;28;20136;-46
2022/06/10 05:28:56;;;;;;;10.95;3.60;;;;;;;16.04;85.53;102003.59;5026992;28;20058;-47
2022/06/10 05:31:44;;;;;;;14.13;3.20;;;;;;;16.09;84.74;102008.28;5026550;28;20050;-48
2022/06/10 05:34:47;;;;;;;11.93;3.33;;;;;;;16.16;83.85;102008.81;5029795;28;20048;-44
2022/06/10 05:37:34;;;;;;;16.30;3.70;;;;;;;16.25;83.49;102003.59;5027761;28;20057;-44
2022/06/10 05:40:30;;;;;;;12.57;3.78;;;;;;;16.20;83.87;102007.16;5010526;28;20045;-49
2022/06/10 05:43:17;;;;;;;13.38;3.92;;;;;;;16.19;84.17;102011.03;5025627;28;20054;-52
2022/06/10 05:46:06;;;;;;;15.82;3.67;;;;;;;16.16;84.48;102006.91;5027224;28;20781;-48
2022/06/10 05:48:48;;;;;;;11.02;3.20;;;;;;;16.16;84.69;102017.06;5028141;28;20083;-46
2022/06/10 05:51:35;;;;;;;9.60;3.05;;;;;;;16.13;85.15;102007.44;5018177;28;20050;-49
2022/06/10 05:54:24;;;;;;;8.65;3.28;;;;;;;16.12;85.69;102005.00;5022154;28;20042;-45
2022/06/10 05:57:10;;;;;;;11.23;3.22;;;;;;;16.14;85.43;102000.88;5008272;28;20072;-47
2022/06/10 05:59:58;;;;;;;11.10;3.10;;;;;;;16.28;84.13;102009.34;5022803;28;20052;-46
2022/06/10 06:02:46;;;;;;;12.30;3.00;;;;;;;16.30;84.43;102006.34;5022795;28;20057;-44
2022/06/10 06:05:34;;;;;;;11.60;3.30;;;;;;;16.28;84.75;102003.03;5015683;28;20457;-46
2022/06/10 06:08:22;;;;;;;15.38;3.90;;;;;;;16.27;85.57;102004.16;5027676;28;20088;-48
2022/06/10 06:11:09;;;;;;;11.80;3.15;;;;;;;16.30;84.78;102017.34;5024620;28;20042;-50
2022/06/10 06:13:58;;;;;;;11.80;3.17;;;;;;;16.41;83.95;102013.47;5015823;28;20386;-47
2022/06/10 06:16:55;;;;;;;12.35;3.05;;;;;;;16.38;85.51;102019.53;5022032;28;20073;-48
2022/06/10 06:19:43;;;;;;;13.70;3.53;;;;;;;16.38;85.20;102019.53;5014513;28;20041;-46
2022/06/10 06:22:31;;;;;;;11.45;3.53;;;;;;;16.41;85.50;102024.47;5022106;28;20049;-48
2022/06/10 06:25:19;;;;;;;14.73;3.95;;;;;;;16.43;85.40;102027.78;5013844;28;20052;-47
2022/06/10 06:28:07;;;;;;;13.43;4.75;;;;;;;16.44;85.62;102023.91;5029656;28;20034;-48
2022/06/10 06:30:54;;;;;;;41.28;10.93;;;;;;;16.57;83.21;102022.50;5032035;28;20524;-49
2022/06/10 06:33:42;;;;;;;19.83;6.70;;;;;;;16.60;83.67;102022.78;5023529;28;20050;-47
2022/06/10 06:36:44;;;;;;;16.58;5.45;;;;;;;16.61;84.64;102024.41;5028217;28;20072;-50
2022/06/10 06:39:32;;;;;;;14.13;4.88;;;;;;;16.63;84.50;102032.41;5028628;28;20053;-50
2022/06/10 06:42:21;;;;;;;40.67;11.13;;;;;;;16.79;81.59;102022.22;5019955;28;20132;-49
2022/06/10 06:45:19;;;;;;;16.58;4.20;;;;;;;16.81;82.83;102022.72;5006680;28;20091;-49
2022/06/10 06:48:11;;;;;;;13.85;4.00;;;;;;;16.73;83.75;102029.63;5025936;28;20129;-50
2022/06/10 06:50:48;;;;;;;13.98;3.58;;;;;;;16.75;83.30;102029.34;5036041;28;20055;-50
2022/06/10 06:53:36;;;;;;;16.83;4.50;;;;;;;16.80;82.99;102021.09;5029741;28;20090;-47
2022/06/10 06:56:23;;;;;;;29.13;7.28;;;;;;;16.87;82.03;102027.13;5035183;28;20053;-44
2022/06/10 06:59:11;;;;;;;12.93;3.63;;;;;;;16.85;82.87;102034.84;5031823;28;20054;-46
2022/06/10 07:01:59;;;;;;;14.93;5.13;;;;;;;16.85;82.43;102045.84;5029555;28;20046;-45
2022/06/10 07:04:47;;;;;;;27.58;8.18;;;;;;;16.91;81.92;102042.00;5029449;28;20045;-47
2022/06/10 07:07:34;;;;;;;16.63;4.25;;;;;;;16.91;82.36;102036.47;5027514;28;20045;-48
2022/06/10 07:10:22;;;;;;;11.38;3.75;;;;;;;16.92;82.58;102035.38;5030405;28;20101;-44
2022/06/10 07:13:11;;;;;;;26.48;8.30;;;;;;;16.98;81.76;102045.25;5028571;28;20050;-46
2022/06/10 07:16:01;;;;;;;21.60;6.97;;;;;;;17.12;81.57;102041.88;5028807;28;20115;-46
2022/06/10 07:18:50;;;;;;;31.58;9.27;;;;;;;17.24;80.19;102045.13;5022026;28;20045;-50
2022/06/10 07:21:38;;;;;;;19.00;6.40;;;;;;;17.19;81.04;102039.66;5025804;28;20048;-49
2022/06/10 07:24:25;;;;;;;11.10;3.15;;;;;;;17.24;80.65;102042.38;5019699;28;20060;-47
2022/06/10 07:27:13;;;;;;;26.88;7.80;;;;;;;17.34;79.59;102042.34;5021744;28;20401;-49
2022/06/10 07:30:01;;;;;;;17.73;4.90;;;;;;;17.30;80.35;102034.94;5024425;28;20517;-50
2022/06/10 07:32:49;;;;;;;20.98;6.07;;;;;;;17.30;80.37;102034.94;5023875;28;20072;-45
2022/06/10 07:35:36;;;;;;;14.65;5.20;;;;;;;17.36;79.73;102034.59;5030169;28;20049;-52
2022/06/10 07:38:29;;;;;;;12.63;3.80;;;;;;;17.30;80.78;102041.25;5020596;28;20500;-47
2022/06/10 07:44:30;;;;;;;12.60;3.30;;;;;;;17.29;80.89;102039.59;5035074;28;20566;-48
2022/06/10 07:47:17;;;;;;;13.23;4.43;;;;;;;17.34;81.11;102039.59;5027017;28;20492;-46
2022/06/10 07:50:05;;;;;;;16.33;6.38;;;;;;;17.41;79.66;102037.34;5026916;28;20523;-48
2022/06/10 07:52:53;;;;;;;19.67;7.00;;;;;;;17.51;79.17;102041.13;5022321;28;20041;-50
2022/06/10 07:55:42;;;;;;;15.18;3.90;;;;;;;17.60;80.06;102039.41;5033654;28;20049;-51
2022/06/10 07:58:31;;;;;;;13.00;3.60;;;;;;;17.60;80.37;102044.94;5020795;28;20567;-48
2022/06/10 08:01:19;;;;;;;9.57;3.40;;;;;;;17.57;80.24;102035.31;5033512;28;20045;-50
2022/06/10 08:03:50;;;;;;;6.28;2.60;;;;;;;17.55;80.70;102032.00;5034747;28;20041;-47
2022/06/10 08:06:41;;;;;;;8.80;2.75;;;;;;;17.53;80.22;102028.69;5034421;28;20046;-49
2022/06/10 08:09:29;;;;;;;10.38;2.80;;;;;;;17.52;80.47;102034.53;5027199;28;20038;-49
2022/06/10 08:12:16;;;;;;;9.20;2.80;;;;;;;17.53;80.50;102034.22;5032270;28;20056;-48
2022/06/10 08:15:04;;;;;;;12.02;2.70;;;;;;;17.55;80.49;102034.75;5016328;28;20145;-50
2022/06/10 08:17:52;;;;;;;8.98;2.80;;;;;;;17.61;79.83;102041.09;5027674;28;20054;-50
2022/06/10 08:23:48;;;;;;;12.73;3.72;;;;;;;17.71;79.55;102043.75;5022700;28;20037;-48
2022/06/10 08:26:36;;;;;;;9.20;3.00;;;;;;;17.74;79.64;102039.59;5029670;28;20046;-47
2022/06/10 08:29:24;;;;;;;10.23;3.00;;;;;;;17.77;78.84;102045.34;5011677;28;20042;-49
2022/06/10 08:32:11;;;;;;;14.23;4.10;;;;;;;17.79;78.42;102040.38;5020659;28;20033;-48
2022/06/10 08:34:56;;;;;;;11.38;3.97;;;;;;;17.86;78.37;102038.16;5030855;28;20057;-49
2022/06/10 08:37:44;;;;;;;12.82;3.55;;;;;;;17.89;78.19;102045.03;5024880;28;20038;-45
2022/06/10 08:40:48;;;;;;;13.10;3.25;;;;;;;17.91;78.12;102042.81;5023124;28;20400;-48
2022/06/10 08:43:39;;;;;;;11.43;3.35;;;;;;;17.94;78.36;102042.22;5033237;28;20034;-47
2022/06/10 08:46:51;;;;;;;9.20;3.45;;;;;;;18.00;77.26;102043.03;5032778;28;20124;-48
2022/06/10 08:50:04;;;;;;;13.55;3.58;;;;;;;18.04;77.45;102044.09;5021319;28;20137;-49
2022/06/10 08:53:04;;;;;;;11.15;3.78;;;;;;;18.11;76.83;102033.53;5024259;28;20460;-44
2022/06/10 08:56:27;;;;;;;9.77;3.28;;;;;;;18.17;76.63;102040.66;5020204;28;20037;-47
2022/06/10 08:59:29;;;;;;;11.20;4.00;;;;;;;18.20;76.31;102037.31;5000576;28;20074;-49
2022/06/10 09:02:28;;;;;;;9.45;3.05;;;;;;;18.22;75.57;102029.56;5030628;28;20037;-47
2022/06/10 09:05:27;;;;;;;11.93;3.38;;;;;;;18.23;75.59;102031.25;5032431;28;20057;-47
2022/06/10 09:08:18;;;;;;;10.45;3.80;;;;;;;18.28;75.62;102022.91;5008111;28;20053;-47
2022/06/10 09:11:33;;;;;;;10.52;3.70;;;;;;;18.33;75.57;102024.81;5029797;28;20123;-47
2022/06/10 09:14:24;;;;;;;14.32;3.75;;;;;;;18.38;74.80;102023.94;5032804;28;20049;-48
2022/06/10 09:17:30;;;;;;;13.43;2.70;;;;;;;18.34;73.59;102039.41;5033449;28;20045;-48
2022/06/10 09:20:28;;;;;;;12.68;3.55;;;;;;;18.35;74.06;102043.81;5017751;28;20041;-44
2022/06/10 09:23:34;;;;;;;14.13;3.80;;;;;;;18.41;75.24;102043.47;5015994;28;20468;-48
2022/06/10 09:26:29;;;;;;;11.05;4.20;;;;;;;18.43;74.46;102037.69;5028391;28;20050;-46
2022/06/10 09:29:17;;;;;;;11.35;4.07;;;;;;;18.42;74.62;102030.50;5018766;28;20057;-48
2022/06/10 09:32:10;;;;;;;11.63;3.58;;;;;;;18.45;74.49;102032.69;5013985;28;20053;-48
2022/06/10 09:34:58;;;;;;;14.88;3.75;;;;;;;18.52;74.55;102033.97;5033069;28;20496;-50
2022/06/10 09:37:56;;;;;;;9.20;3.33;;;;;;;18.50;73.33;102027.13;5027264;28;20133;-46
2022/06/10 09:41:02;;;;;;;10.43;3.53;;;;;;;18.53;74.51;102029.28;5030991;28;20489;-51
2022/06/10 09:44:54;;;;;;;10.93;3.20;;;;;;;18.55;74.80;102032.56;5019234;28;20049;-48
2022/06/10 09:47:56;;;;;;;9.27;2.95;;;;;;;18.66;74.62;102027.75;5003083;28;20517;-49
2022/06/10 09:51:08;;;;;;;12.38;4.22;;;;;;;18.76;73.25;102026.81;5012034;28;20413;-46
2022/06/10 09:54:19;;;;;;;11.38;3.63;;;;;;;18.83;73.44;102035.59;5013181;28;20381;-48
2022/06/10 09:57:22;;;;;;;14.43;4.05;;;;;;;18.92;73.80;102031.06;5016052;28;20492;-48
2022/06/10 10:00:15;;;;;;;18.00;4.45;;;;;;;18.97;72.95;102033.75;5025047;28;20492;-47
2022/06/10 10:03:09;;;;;;;12.50;3.33;;;;;;;19.02;73.10;102030.94;5027252;28;20393;-46
2022/06/10 10:06:07;;;;;;;12.70;3.78;;;;;;;19.10;73.15;102024.78;5018528;28;20050;-47
2022/06/10 10:09:36;;;;;;;11.63;3.65;;;;;;;19.19;73.44;102035.97;5000673;28;20045;-48
2022/06/10 10:12:41;;;;;;;13.82;3.75;;;;;;;19.26;72.95;102035.59;5019493;28;20045;-49
2022/06/10 10:15:49;;;;;;;11.85;3.78;;;;;;;19.26;72.95;102033.66;5019468;28;20415;-48
2022/06/10 10:18:58;;;;;;;15.25;3.65;;;;;;;19.24;72.59;102030.41;5019868;28;21101;-48
2022/06/10 10:22:09;;;;;;;13.25;3.10;;;;;;;19.26;73.31;102028.13;5020348;28;20041;-47
2022/06/10 10:24:57;;;;;;;13.15;3.42;;;;;;;19.31;73.33;102033.63;5021426;28;20053;-49
2022/06/10 10:27:47;;;;;;;14.15;3.78;;;;;;;19.40;72.56;102035.69;5030764;28;20459;-47
2022/06/10 10:30:59;;;;;;;17.63;3.78;;;;;;;19.42;72.01;102037.03;5024213;28;20046;-51
2022/06/10 10:33:47;;;;;;;12.88;3.50;;;;;;;19.43;72.72;102029.56;5025252;28;20524;-49
2022/06/10 10:36:57;;;;;;;11.60;3.50;;;;;;;19.43;72.84;102029.56;5028338;28;20052;-49
2022/06/10 10:39:52;;;;;;;10.48;3.40;;;;;;;19.44;73.55;102029.28;5034340;28;20041;-47
2022/06/10 10:42:42;;;;;;;12.60;3.30;;;;;;;19.47;72.77;102023.16;5034841;28;20132;-47
2022/06/10 10:45:36;;;;;;;14.00;3.63;;;;;;;19.50;72.30;102024.50;5036359;28;20280;-46
2022/06/10 10:48:27;;;;;;;13.23;3.92;;;;;;;19.55;73.00;102019.72;5029706;28;20065;-50
2022/06/10 10:51:20;;;;;;;13.50;3.70;;;;;;;19.61;72.92;102025.16;5034548;28;20041;-48
2022/06/10 10:54:34;;;;;;;9.02;3.45;;;;;;;19.66;71.93;102022.31;5035859;28;20447;-48
2022/06/10 10:57:25;;;;;;;10.27;3.72;;;;;;;19.69;73.02;102022.56;5035445;28;20057;-47
2022/06/10 11:00:15;;;;;;;9.50;3.30;;;;;;;19.76;72.14;102016.66;5022042;28;20046;-49
2022/06/10 11:03:04;;;;;;;11.23;3.83;;;;;;;19.80;71.43;102017.72;5032183;28;20057;-50
2022/06/10 11:05:54;;;;;;;11.90;3.67;;;;;;;19.79;72.12;102016.88;5028541;28;20456;-50
2022/06/10 11:08:56;;;;;;;10.68;3.40;;;;;;;19.79;72.30;102018.81;5017996;28;20404;-48
2022/06/10 11:11:44;;;;;;;15.45;4.30;;;;;;;19.80;73.03;102023.25;5032045;28;20046;-47
2022/06/10 11:14:33;;;;;;;11.48;3.40;;;;;;;19.76;72.22;102019.41;5035394;28;20049;-48
2022/06/10 11:17:25;;;;;;;10.43;3.20;;;;;;;19.74;73.23;102027.19;5027531;28;20054;-52
2022/06/10 11:20:29;;;;;;;12.15;3.50;;;;;;;19.70;72.86;102028.91;5023533;28;20049;-48
2022/06/10 11:23:24;;;;;;;10.27;3.45;;;;;;;19.70;72.57;102028.91;5033099;28;20038;-48
2022/06/10 11:26:21;;;;;;;12.82;3.80;;;;;;;19.71;73.67;102025.03;5035158;28;20077;-48
2022/06/10 11:29:12;;;;;;;10.80;3.50;;;;;;;19.70;73.52;102026.13;5022930;28;20077;-50
2022/06/10 11:32:05;;;;;;;11.93;3.55;;;;;;;19.69;73.50;102027.28;5012395;28;20057;-46
2022/06/10 11:35:00;;;;;;;15.32;4.40;;;;;;;19.69;73.36;102036.38;5031500;28;20127;-50
2022/06/10 11:37:51;;;;;;;20.75;4.68;;;;;;;19.70;73.63;102023.38;5027677;28;20116;-47
2022/06/10 11:40:39;;;;;;;14.43;3.60;;;;;;;19.76;73.34;102022.19;5024561;28;20041;-47
2022/06/10 11:43:49;;;;;;;7.95;3.00;;;;;;;19.83;70.84;102007.97;5034702;28;20045;-49
2022/06/10 11:46:52;;;;;;;12.82;4.05;;;;;;;19.92;73.02;102012.53;5029409;28;20132;-48
2022/06/10 11:50:02;;;;;;;8.27;2.92;;;;;;;20.03;69.94;102012.34;5030444;28;20475;-46
2022/06/10 11:53:11;;;;;;;16.17;3.90;;;;;;;20.13;71.85;102010.22;5034771;28;20050;-45
2022/06/10 12:02:30;;;;;;;14.77;3.70;;;;;;;20.24;72.45;101998.97;5020691;28;20408;-48
2022/06/10 12:05:25;;;;;;;13.40;3.63;;;;;;;20.30;72.22;101998.56;5034430;28;20091;-47
2022/06/10 12:08:24;;;;;;;13.77;3.60;;;;;;;20.36;71.77;101997.34;5025740;28;20049;-50
2022/06/10 12:11:45;;;;;;;10.68;3.42;;;;;;;20.39;71.85;101993.94;5033900;28;20049;-50
2022/06/10 12:14:47;;;;;;;14.70;4.03;;;;;;;20.38;70.43;101986.78;5029775;28;20052;-48
2022/06/10 12:17:39;;;;;;;13.05;3.70;;;;;;;20.37;70.15;101992.63;5031694;28;20615;-46
2022/06/10 12:20:42;;;;;;;11.85;3.25;;;;;;;20.37;70.46;101989.84;5024294;28;20412;-48
2022/06/10 12:23:36;;;;;;;11.68;3.75;;;;;;;20.41;69.92;101988.13;5021178;28;20052;-48
2022/06/10 12:27:00;;;;;;;10.18;3.03;;;;;;;20.49;68.89;101978.28;5023766;28;20416;-47
2022/06/10 12:30:10;;;;;;;14.63;3.35;;;;;;;20.52;69.54;101978.50;5018109;28;20403;-47
2022/06/10 12:33:13;;;;;;;10.48;3.28;;;;;;;20.49;68.82;101978.28;5029967;28;20057;-45
2022/06/10 12:36:01;;;;;;;9.68;3.22;;;;;;;20.52;69.92;101977.69;5024001;28;20076;-48
2022/06/10 12:38:51;;;;;;;13.75;3.30;;;;;;;20.60;68.67;101974.22;5026348;28;20049;-47
2022/06/10 12:41:45;;;;;;;14.70;3.47;;;;;;;20.71;68.40;101972.03;5031007;28;20045;-46
2022/06/10 12:44:37;;;;;;;11.45;2.85;;;;;;;20.80;67.46;101968.25;5024427;28;20385;-49
2022/06/10 12:47:36;;;;;;;17.50;3.45;;;;;;;20.87;66.64;101967.00;5033528;28;20061;-47
2022/06/10 12:50:29;;;;;;;7.15;2.70;;;;;;;20.94;66.28;101961.88;5005487;28;20104;-47
2022/06/10 12:53:25;;;;;;;12.57;3.25;;;;;;;21.02;66.71;101958.34;5029234;28;20053;-49
2022/06/10 12:56:25;;;;;;;9.80;3.00;;;;;;;21.00;64.60;101960.63;5032214;28;20056;-47
2022/06/10 12:59:39;;;;;;;8.13;2.80;;;;;;;21.05;65.29;101960.53;5018806;28;20046;-45
2022/06/10 13:02:47;;;;;;;7.82;3.05;;;;;;;21.16;65.58;101953.59;5026106;28;20050;-49
2022/06/10 13:05:33;;;;;;;10.82;3.30;;;;;;;21.24;65.36;101954.81;5022760;28;20076;-48
2022/06/10 13:08:37;;;;;;;9.80;3.03;;;;;;;21.21;65.28;101956.28;5032890;28;20045;-49
2022/06/10 13:11:31;;;;;;;6.10;2.70;;;;;;;21.24;65.88;101958.41;5031054;28;20128;-52
2022/06/10 13:14:21;;;;;;;11.20;3.05;;;;;;;21.21;64.87;101950.72;5033466;28;20056;-52
2022/06/10 13:17:26;;;;;;;12.77;3.50;;;;;;;21.18;64.66;101956.88;5032841;28;20049;-51
2022/06/10 13:20:20;;;;;;;10.30;3.92;;;;;;;21.11;66.17;101962.03;5033529;28;20420;-46
2022/06/10 13:23:12;;;;;;;11.10;3.30;;;;;;;21.05;64.90;101955.78;5013079;28;20045;-46
2022/06/10 13:26:06;;;;;;;10.65;2.80;;;;;;;21.00;65.98;101957.88;5030686;28;20526;-48
2022/06/10 13:29:14;;;;;;;10.60;3.13;;;;;;;20.96;66.40;101954.88;5036334;28;20068;-50
2022/06/10 13:32:02;;;;;;;14.00;3.30;;;;;;;20.95;66.29;101952.41;5034713;28;20416;-53
2022/06/10 13:34:57;;;;;;;9.40;3.08;;;;;;;20.95;66.72;101952.41;5031249;28;20045;-50
2022/06/10 13:37:44;;;;;;;10.02;3.35;;;;;;;20.97;66.63;101955.69;5034467;28;20049;-50
2022/06/10 13:40:32;;;;;;;11.18;3.30;;;;;;;20.96;66.82;101945.75;5023622;28;20050;-51
2022/06/10 13:43:30;;;;;;;11.80;3.20;;;;;;;20.95;66.90;101957.94;5015295;28;20125;-47